createdAt,value
2019-04-26T06:16:12.271Z,100309.53
2019-04-26T06:17:10.332Z,100283.55
2019-04-26T06:18:26.914Z,100303.55
2019-04-26T06:19:29.247Z,100267.33
2019-04-26T06:20:39.552Z,100319.70
2019-04-26T06:21:33.505Z,100280.41
2019-04-26T06:22:27.620Z,100289.42
2019-04-26T06:23:15.316Z,100300.23
2019-04-26T06:24:20.159Z,100271.74
2019-04-26T06:25:14.410Z,100296.16
2019-04-26T06:26:35.510Z,100296.16
2019-04-26T06:27:56.887Z,100333.52
2019-04-26T06:28:56.352Z,100299.16
2019-04-26T06:29:38.698Z,100300.01
2019-04-26T06:30:29.250Z,100314.39
2019-04-26T06:31:13.280Z,100314.39
2019-04-26T06:32:18.922Z,100324.75
2019-04-26T06:33:28.269Z,100242.38
2019-04-26T06:34:17.971Z,100341.22
2019-04-26T06:35:11.952Z,100346.86
2019-04-26T06:35:48.991Z,100306.94
2019-04-26T06:36:28.590Z,100325.05
2019-04-26T06:37:17.754Z,100293.65
2019-04-26T06:38:28.880Z,100293.65
2019-04-26T06:39:33.875Z,100299.33
2019-04-26T06:40:24.260Z,100308.28
2019-04-26T06:42:00.800Z,100312.29
2019-04-26T06:43:02.654Z,100294.37
2019-04-26T06:43:46.386Z,100175.33
2019-04-26T06:44:31.277Z,100182.54
2019-04-26T06:45:35.532Z,100180.98
2019-04-26T13:20:11.021Z,100310.48
2019-04-26T13:20:47.660Z,100297.50
2019-04-26T13:21:33.083Z,100235.30
2019-04-26T13:22:12.549Z,100235.30
2019-04-26T13:22:50.263Z,100242.16
2019-04-26T13:23:30.046Z,100230.73
2019-04-26T13:24:06.133Z,100235.42
2019-04-26T13:24:43.270Z,100188.72
2019-04-26T13:25:26.449Z,100246.16
2019-04-26T13:25:59.561Z,100229.75
2019-04-26T13:26:38.435Z,100242.22
2019-04-26T13:27:14.066Z,100210.16
2019-04-26T13:27:53.925Z,100246.09
2019-04-26T13:28:30.668Z,100235.68
2019-04-26T13:29:07.728Z,100237.20
2019-04-26T13:29:44.387Z,100230.00
2019-04-26T13:30:32.419Z,100238.84
2019-04-26T13:31:02.064Z,100235.79
2019-04-26T13:31:38.315Z,100205.58
2019-04-26T13:32:27.483Z,100226.44
2019-04-26T13:33:14.535Z,100210.05
2019-04-26T13:33:58.324Z,100247.50
2019-04-26T13:34:44.298Z,100173.06
2019-04-26T13:35:35.931Z,100321.31
2019-04-26T13:36:15.959Z,100171.34
2019-04-26T13:36:52.957Z,100171.34
2019-04-26T13:37:32.218Z,100201.72
2019-04-26T13:38:10.063Z,100214.38
2019-04-26T13:38:47.283Z,100208.06
2019-04-26T13:39:24.252Z,100175.16
2019-04-26T13:40:00.898Z,100207.57
2019-04-26T13:40:41.913Z,100195.34
2019-04-26T13:41:19.962Z,100193.81
2019-04-26T13:42:04.361Z,100193.81
2019-04-26T13:42:39.000Z,100221.30
2019-04-26T13:43:16.338Z,100131.68
2019-04-26T13:43:52.985Z,100122.82
2019-04-26T13:44:46.609Z,100108.31
2019-04-26T13:45:40.931Z,100057.48
2019-04-26T13:46:35.290Z,100057.48
2019-04-26T13:47:23.287Z,100069.22
2019-04-26T13:48:19.260Z,100071.77
2019-04-26T13:49:00.232Z,100066.09
2019-04-26T13:49:38.551Z,100056.58
2019-04-26T13:50:29.327Z,100049.09
2019-04-26T13:51:10.306Z,100049.09
